Sant Joan Despi, Spain
Current Conditions -  °F | °C
As of 9:30 PM on Friday 21 Nov 2014 (Local Time) from LEBL Reporting Station
Scattered Clouds Scattered Clouds  
Wind Chill: 63°   Ceiling: Unl
Heat Index: 63°   Visibility: 6mi
Dew Point: 57°   Wind: 2mph
Humidity: 82%   Direction: 30°NNE
Pressure: 30.09"   Gusts: NA
Location:  41.37°N, 2.07°E
Report Text: LEBL 212030Z 03002KT 9999 SCT022 17/14 Q1019 NOSIG
Loading
Personal Weather Stations






























Interactive Weather Map New forecast layout! Learn more

10-Day Weather Forecast

Advertisements
Track Severe Weather on mobile